createdAt,value
2018-12-02T00:00:54.871Z,6.40
2018-12-02T00:04:00.236Z,6.40
2018-12-02T00:07:05.668Z,6.80
2018-12-02T00:10:13.677Z,7.40
2018-12-02T00:13:19.047Z,6.10
2018-12-02T00:16:24.384Z,7.17
2018-12-02T00:19:29.744Z,7.17
2018-12-02T00:22:35.163Z,7.73
2018-12-02T00:25:40.573Z,8.00
2018-12-02T00:28:45.948Z,8.50
2018-12-02T00:31:51.464Z,7.90
2018-12-02T00:34:56.851Z,7.67
2018-12-02T00:38:03.484Z,8.10
2018-12-02T00:41:08.908Z,8.47
2018-12-02T00:44:14.510Z,8.90
2018-12-02T00:47:19.845Z,8.27
2018-12-02T00:50:25.591Z,9.17
2018-12-02T00:53:30.940Z,8.27
2018-12-02T00:56:36.309Z,8.60
2018-12-02T00:59:41.696Z,8.30
2018-12-02T01:02:48.413Z,8.17
2018-12-02T01:05:53.788Z,9.30
2018-12-02T01:08:59.223Z,8.60
2018-12-02T01:12:04.782Z,8.73
2018-12-02T01:15:17.978Z,8.30
2018-12-02T01:18:23.345Z,8.30
2018-12-02T01:21:28.821Z,7.80
2018-12-02T01:24:34.200Z,8.43
2018-12-02T01:27:39.932Z,8.30
2018-12-02T01:30:45.390Z,6.97
2018-12-02T01:33:51.409Z,8.33
2018-12-02T01:36:57.257Z,7.57
2018-12-02T01:40:02.721Z,7.63
2018-12-02T01:43:20.030Z,7.97
2018-12-02T01:46:25.512Z,7.00
2018-12-02T01:49:31.688Z,7.47
2018-12-02T01:52:37.142Z,6.70
2018-12-02T01:55:43.236Z,6.60
2018-12-02T01:58:48.600Z,7.07
2018-12-02T02:01:53.992Z,6.43
2018-12-02T02:04:59.524Z,7.20
2018-12-02T02:08:05.528Z,6.40
2018-12-02T02:11:10.936Z,6.73
2018-12-02T02:14:16.353Z,6.67
2018-12-02T02:17:21.716Z,7.37
2018-12-02T02:20:27.456Z,6.83
2018-12-02T02:23:32.826Z,7.13
2018-12-02T02:26:38.267Z,6.10
2018-12-02T02:29:43.700Z,6.60
2018-12-02T02:32:49.559Z,6.77
2018-12-02T02:35:54.908Z,6.47
2018-12-02T02:39:00.269Z,6.17
2018-12-02T02:42:06.488Z,6.83
2018-12-02T02:45:13.089Z,6.03
2018-12-02T02:48:18.465Z,6.93
2018-12-02T02:51:24.036Z,6.60
2018-12-02T02:54:29.440Z,6.73
2018-12-02T02:57:34.912Z,6.20
2018-12-02T03:00:40.769Z,6.43
2018-12-02T03:03:46.213Z,6.27
2018-12-02T03:06:51.661Z,5.97
2018-12-02T03:09:57.093Z,5.70
2018-12-02T03:13:02.559Z,5.00
2018-12-02T03:16:08.302Z,5.07
2018-12-02T03:19:13.676Z,5.33
2018-12-02T03:22:19.332Z,5.10
2018-12-02T03:25:26.635Z,5.03
2018-12-02T03:28:32.063Z,4.60
2018-12-02T03:31:37.629Z,4.53
2018-12-02T03:34:42.965Z,4.33
2018-12-02T03:37:49.058Z,4.27
2018-12-02T03:40:54.461Z,4.83
2018-12-02T03:43:59.913Z,4.27
2018-12-02T03:47:05.428Z,3.93
2018-12-02T03:50:17.816Z,3.63
2018-12-02T03:53:21.005Z,4.30
2018-12-02T03:56:26.425Z,3.83
2018-12-02T03:59:31.876Z,3.47
2018-12-02T04:02:37.420Z,3.20
2018-12-02T04:05:42.740Z,3.13
2018-12-02T04:08:48.103Z,3.50
2018-12-02T04:11:53.695Z,3.10
2018-12-02T04:14:59.104Z,3.50
2018-12-02T04:18:04.818Z,3.20
2018-12-02T04:21:10.348Z,2.60
2018-12-02T04:24:15.773Z,2.80
2018-12-02T04:27:21.212Z,3.00
2018-12-02T04:30:26.772Z,2.37
2018-12-02T04:33:32.221Z,2.83
2018-12-02T04:36:37.660Z,2.60
2018-12-02T04:39:43.219Z,2.67
2018-12-02T04:42:48.656Z,2.60
2018-12-02T04:45:54.113Z,2.63
2018-12-02T04:48:59.972Z,2.20
2018-12-02T04:52:05.709Z,2.63
2018-12-02T04:55:11.828Z,2.37
2018-12-02T04:58:17.252Z,2.53
2018-12-02T05:01:22.792Z,1.87
2018-12-02T05:04:28.241Z,1.90
2018-12-02T05:07:33.763Z,1.80
2018-12-02T05:10:39.153Z,2.13
2018-12-02T05:13:44.510Z,2.17
2018-12-02T05:16:49.928Z,2.23
2018-12-02T05:19:55.377Z,2.00
2018-12-02T05:23:00.913Z,1.70
2018-12-02T05:26:06.823Z,2.00
2018-12-02T05:29:12.272Z,1.60
2018-12-02T05:32:17.764Z,2.03
2018-12-02T05:35:23.233Z,1.80
2018-12-02T05:38:28.552Z,1.77
2018-12-02T05:41:39.263Z,1.80
2018-12-02T05:44:44.714Z,2.10
2018-12-02T05:47:50.185Z,2.23
2018-12-02T05:50:55.696Z,1.83
2018-12-02T05:54:01.315Z,1.70
2018-12-02T05:57:07.017Z,2.37
2018-12-02T06:00:14.923Z,2.00
2018-12-02T06:03:20.444Z,2.17
2018-12-02T06:06:25.828Z,2.10
2018-12-02T06:09:31.243Z,2.00
2018-12-02T06:12:36.907Z,2.27
2018-12-02T06:15:42.302Z,2.37
2018-12-02T06:18:47.808Z,2.27
2018-12-02T06:21:53.156Z,2.40
2018-12-02T06:24:58.532Z,2.50
2018-12-02T06:28:04.228Z,2.30
2018-12-02T06:31:09.732Z,2.63
2018-12-02T06:34:15.132Z,2.70
2018-12-02T06:37:20.521Z,2.80
2018-12-02T06:40:28.413Z,2.33
2018-12-02T06:43:33.740Z,2.93
2018-12-02T06:46:39.105Z,2.33
2018-12-02T06:49:44.528Z,2.60
2018-12-02T06:52:50.003Z,2.43
2018-12-02T06:56:02.299Z,2.90
2018-12-02T06:59:49.508Z,3.10
2018-12-02T07:03:07.600Z,3.57
2018-12-02T07:06:12.985Z,3.40
2018-12-02T07:09:18.904Z,3.83
2018-12-02T07:12:23.827Z,4.07
2018-12-02T07:15:29.255Z,3.70
2018-12-02T07:18:36.466Z,4.23
2018-12-02T07:21:42.051Z,4.17
2018-12-02T07:24:47.399Z,4.00
2018-12-02T07:27:52.816Z,4.03
2018-12-02T07:30:58.425Z,3.93
2018-12-02T07:34:03.816Z,4.47
2018-12-02T07:37:19.699Z,4.40
2018-12-02T07:40:30.427Z,4.40
2018-12-02T07:43:35.787Z,4.50
2018-12-02T07:46:41.168Z,3.93
2018-12-02T07:49:46.560Z,4.60
2018-12-02T07:52:52.081Z,4.73
2018-12-02T07:55:57.508Z,4.30
2018-12-02T07:59:02.900Z,4.80
2018-12-02T08:02:09.057Z,4.70
2018-12-02T08:05:16.627Z,4.57
2018-12-02T08:08:22.280Z,4.83
2018-12-02T08:11:27.927Z,4.63
2018-12-02T08:14:33.294Z,5.03
2018-12-02T08:17:39.115Z,4.80
2018-12-02T08:20:44.624Z,4.33
2018-12-02T08:23:50.035Z,4.33
2018-12-02T08:26:55.355Z,4.60
2018-12-02T08:30:00.733Z,4.17
2018-12-02T08:33:06.277Z,4.70
2018-12-02T08:36:11.624Z,5.10
2018-12-02T08:39:17.085Z,5.20
2018-12-02T08:42:22.600Z,5.17
2018-12-02T08:45:28.376Z,4.70
2018-12-02T08:48:33.825Z,4.50
2018-12-02T08:51:39.560Z,4.83
2018-12-02T08:54:44.928Z,4.90
2018-12-02T08:57:52.432Z,4.60
2018-12-02T09:00:57.997Z,4.73
2018-12-02T09:04:03.403Z,3.83
2018-12-02T09:07:08.763Z,4.40
2018-12-02T09:10:16.439Z,4.27
2018-12-02T09:13:21.895Z,4.60
2018-12-02T09:16:27.237Z,4.50
2018-12-02T09:19:32.555Z,4.37
2018-12-02T09:22:38.280Z,4.27
2018-12-02T09:25:43.735Z,4.57
2018-12-02T09:28:49.147Z,4.30
2018-12-02T09:31:54.527Z,4.37
2018-12-02T09:34:59.975Z,4.00
2018-12-02T09:38:06.053Z,3.90
2018-12-02T09:41:11.597Z,3.83
2018-12-02T09:44:17.004Z,4.77
2018-12-02T09:47:22.364Z,4.17
2018-12-02T09:50:27.848Z,3.50
2018-12-02T09:53:33.252Z,3.97
2018-12-02T09:56:38.642Z,4.00
2018-12-02T09:59:44.139Z,4.07
2018-12-02T10:02:49.926Z,3.87
2018-12-02T10:05:55.686Z,4.43
2018-12-02T10:09:01.016Z,4.20
2018-12-02T10:12:06.707Z,3.63
2018-12-02T10:15:13.940Z,4.10
2018-12-02T10:18:19.307Z,4.67
2018-12-02T10:21:25.578Z,3.90
2018-12-02T10:24:31.020Z,4.03
2018-12-02T10:27:36.376Z,4.10
2018-12-02T10:30:42.659Z,3.80
2018-12-02T10:33:47.995Z,4.00
2018-12-02T10:36:53.483Z,4.10
2018-12-02T10:39:59.467Z,3.83
2018-12-02T10:43:04.874Z,3.83
2018-12-02T10:46:10.214Z,3.73
2018-12-02T10:49:15.596Z,3.70
2018-12-02T10:52:21.082Z,3.60
2018-12-02T10:55:43.876Z,3.50
2018-12-02T10:58:49.183Z,3.33
2018-12-02T11:01:58.719Z,4.00
2018-12-02T11:05:04.191Z,4.33
2018-12-02T11:08:09.540Z,3.67
2018-12-02T11:14:44.563Z,3.83
2018-12-02T11:17:49.930Z,3.83
2018-12-02T11:20:55.320Z,3.73
2018-12-02T11:24:01.895Z,3.70
2018-12-02T11:27:07.972Z,3.33
2018-12-02T11:30:16.243Z,3.77
2018-12-02T11:33:21.708Z,3.83
2018-12-02T11:36:27.055Z,4.07
2018-12-02T11:39:32.462Z,4.13
2018-12-02T11:42:37.867Z,4.37
2018-12-02T11:45:43.227Z,5.37
2018-12-02T11:48:48.576Z,4.43
2018-12-02T11:51:53.980Z,4.50
2018-12-02T11:54:59.430Z,4.17
2018-12-02T11:58:05.096Z,3.73
2018-12-02T12:01:10.536Z,3.70
2018-12-02T12:04:15.887Z,3.47
2018-12-02T12:07:21.229Z,3.83
2018-12-02T12:10:28.767Z,4.00
2018-12-02T12:13:34.285Z,3.60
2018-12-02T12:16:39.707Z,3.53
2018-12-02T12:19:47.200Z,3.63
2018-12-02T12:22:52.784Z,3.53
2018-12-02T12:25:58.127Z,4.03
2018-12-02T12:29:03.572Z,3.80
2018-12-02T12:32:09.128Z,4.30
2018-12-02T12:35:16.386Z,3.60
2018-12-02T12:38:22.397Z,3.00
2018-12-02T12:41:27.083Z,3.13
2018-12-02T12:44:32.437Z,3.43
2018-12-02T12:47:38.620Z,2.77
2018-12-02T12:50:44.076Z,2.60
2018-12-02T12:53:49.500Z,2.33
2018-12-02T12:56:54.943Z,3.10
2018-12-02T13:00:00.940Z,2.70
2018-12-02T13:03:07.171Z,3.13
2018-12-02T13:06:12.491Z,2.80
2018-12-02T13:09:17.864Z,2.70
2018-12-02T13:12:23.308Z,2.50
2018-12-02T13:15:28.871Z,3.10
2018-12-02T13:18:34.350Z,3.17
2018-12-02T13:21:39.698Z,3.27
2018-12-02T13:24:45.108Z,2.70
2018-12-02T13:27:50.667Z,3.10
2018-12-02T13:30:56.042Z,2.57
2018-12-02T13:34:01.576Z,2.83
2018-12-02T13:37:07.121Z,2.23
2018-12-02T13:40:15.943Z,2.37
2018-12-02T13:43:24.009Z,2.30
2018-12-02T13:46:29.381Z,2.40
2018-12-02T13:49:34.853Z,2.40
2018-12-02T13:52:40.308Z,1.67
2018-12-02T13:55:46.872Z,1.93
2018-12-02T13:58:53.081Z,2.30
2018-12-02T14:01:59.228Z,1.43
2018-12-02T14:05:05.260Z,1.70
2018-12-02T14:08:11.920Z,1.90
2018-12-02T14:11:17.700Z,1.80
2018-12-02T14:14:23.352Z,1.80
2018-12-02T14:17:31.161Z,2.00
2018-12-02T14:20:36.980Z,1.80
2018-12-02T14:23:44.196Z,1.87
2018-12-02T14:26:50.417Z,2.10
2018-12-02T14:29:57.535Z,2.33
2018-12-02T14:33:03.013Z,2.50
2018-12-02T14:36:08.467Z,2.53
2018-12-02T14:39:14.658Z,2.63
2018-12-02T14:42:20.241Z,2.60
2018-12-02T14:45:25.656Z,3.23
2018-12-02T14:48:31.040Z,2.93
2018-12-02T14:51:36.681Z,3.17
2018-12-02T14:54:42.160Z,3.50
2018-12-02T14:57:47.663Z,4.10
2018-12-02T15:00:53.076Z,3.50
2018-12-02T15:03:59.285Z,3.73
2018-12-02T15:07:05.227Z,3.63
2018-12-02T15:10:16.569Z,7.57
2018-12-02T15:13:21.930Z,4.80
2018-12-02T15:16:27.309Z,4.40
2018-12-02T15:19:32.719Z,4.13
2018-12-02T15:22:38.482Z,4.33
2018-12-02T15:25:44.048Z,5.63
2018-12-02T15:28:49.588Z,4.93
2018-12-02T15:31:55.226Z,4.83
2018-12-02T15:35:00.669Z,5.90
2018-12-02T15:38:06.851Z,6.00
2018-12-02T15:41:12.297Z,5.67
2018-12-02T15:44:17.808Z,5.60
2018-12-02T15:47:23.197Z,6.63
2018-12-02T15:50:28.655Z,6.83
2018-12-02T15:53:34.117Z,6.20
2018-12-02T15:56:39.546Z,7.10
2018-12-02T15:59:44.860Z,6.57
2018-12-02T16:02:50.447Z,7.60
2018-12-02T16:05:56.550Z,6.70
2018-12-02T16:09:01.885Z,7.23
2018-12-02T16:12:08.021Z,7.40
2018-12-02T16:15:15.939Z,7.27
2018-12-02T16:18:21.401Z,7.80
2018-12-02T16:21:26.840Z,8.00
2018-12-02T16:24:32.209Z,7.30
2018-12-02T16:27:37.640Z,7.00
2018-12-02T16:30:43.268Z,7.73
2018-12-02T16:33:48.748Z,6.90
2018-12-02T16:36:54.168Z,7.60
2018-12-02T16:39:59.601Z,8.30
2018-12-02T16:43:05.539Z,8.20
2018-12-02T16:46:10.900Z,8.07
2018-12-02T16:49:16.387Z,8.10
2018-12-02T16:52:21.844Z,8.00
2018-12-02T16:55:30.884Z,7.23
2018-12-02T16:58:44.807Z,8.27
2018-12-02T17:01:54.657Z,8.27
2018-12-02T17:05:00.104Z,8.40
2018-12-02T17:08:05.879Z,8.07
2018-12-02T17:11:11.335Z,8.10
2018-12-02T17:14:16.760Z,8.73
2018-12-02T17:17:22.231Z,7.80
2018-12-02T17:20:27.637Z,8.50
2018-12-02T17:23:33.109Z,7.67
2018-12-02T17:26:38.731Z,7.63
2018-12-02T17:29:44.495Z,7.90
2018-12-02T17:32:49.963Z,7.13
2018-12-02T17:35:55.408Z,7.23
2018-12-02T17:39:09.065Z,7.10
2018-12-02T17:42:14.916Z,6.80
2018-12-02T17:45:20.956Z,7.13
2018-12-02T17:48:26.485Z,6.77
2018-12-02T17:51:31.953Z,6.90
2018-12-02T17:54:37.448Z,6.70
2018-12-02T17:57:42.845Z,6.40
2018-12-02T18:00:48.346Z,5.80
2018-12-02T18:03:53.786Z,5.93
2018-12-02T18:06:59.274Z,5.93
2018-12-02T18:10:09.420Z,5.30
2018-12-02T18:13:14.844Z,5.30
2018-12-02T18:16:20.275Z,4.50
2018-12-02T18:19:25.720Z,4.53
2018-12-02T18:22:31.181Z,4.70
2018-12-02T18:25:36.614Z,5.40
2018-12-02T18:28:42.706Z,5.63
2018-12-02T18:31:48.108Z,5.57
2018-12-02T18:34:53.680Z,6.30
2018-12-02T18:38:02.992Z,5.90
2018-12-02T18:41:16.675Z,5.47
2018-12-02T18:44:22.073Z,6.57
2018-12-02T18:47:27.560Z,5.70
2018-12-02T18:50:33.337Z,5.70
2018-12-02T18:53:38.869Z,6.07
2018-12-02T18:56:44.609Z,6.63
2018-12-02T18:59:49.976Z,6.13
2018-12-02T19:02:57.887Z,5.40
2018-12-02T19:06:03.398Z,6.00
2018-12-02T19:09:12.073Z,5.87
2018-12-02T19:12:17.523Z,5.53
2018-12-02T19:15:23.377Z,5.63
2018-12-02T19:18:29.192Z,8.13
2018-12-02T19:21:34.696Z,6.07
2018-12-02T19:24:40.232Z,5.67
2018-12-02T19:27:45.688Z,6.13
2018-12-02T19:30:51.087Z,6.37
2018-12-02T19:33:58.485Z,6.63
2018-12-02T19:37:07.404Z,7.77
2018-12-02T19:40:16.724Z,7.40
2018-12-02T19:43:22.426Z,7.30
2018-12-02T19:46:27.876Z,7.40
2018-12-02T19:49:33.245Z,7.17
2018-12-02T19:52:38.884Z,8.30
2018-12-02T19:55:44.327Z,7.90
2018-12-02T19:58:49.776Z,8.17
2018-12-02T20:01:55.653Z,6.53
2018-12-02T20:05:01.061Z,7.77
2018-12-02T20:08:07.665Z,6.67
2018-12-02T20:11:13.152Z,6.90
2018-12-02T20:14:18.555Z,7.10
2018-12-02T20:17:23.947Z,6.83
2018-12-02T20:20:35.676Z,6.70
2018-12-02T20:23:46.423Z,7.57
2018-12-02T20:26:51.800Z,6.37
2018-12-02T20:29:57.294Z,6.70
2018-12-02T20:33:02.745Z,7.33
2018-12-02T20:36:09.102Z,7.97
2018-12-02T20:39:14.612Z,7.13
2018-12-02T20:42:20.084Z,7.43
2018-12-02T20:45:25.444Z,7.47
2018-12-02T20:48:30.906Z,7.63
2018-12-02T20:51:36.328Z,7.23
2018-12-02T20:54:41.785Z,7.90
2018-12-02T20:57:47.864Z,7.33
2018-12-02T21:00:53.256Z,7.70
2018-12-02T21:03:59.647Z,7.97
2018-12-02T21:07:06.163Z,7.77
2018-12-02T21:10:12.895Z,7.90
2018-12-02T21:13:18.283Z,7.50
2018-12-02T21:16:25.865Z,8.50
2018-12-02T21:19:31.256Z,7.53
2018-12-02T21:22:36.761Z,8.63
2018-12-02T21:25:42.306Z,8.20
2018-12-02T21:28:47.696Z,8.63
2018-12-02T21:31:53.160Z,8.97
2018-12-02T21:34:58.678Z,8.33
2018-12-02T21:38:04.048Z,9.03
2018-12-02T21:41:09.528Z,8.63
2018-12-02T21:44:15.000Z,9.10
2018-12-02T21:47:21.361Z,9.37
2018-12-02T21:50:30.590Z,9.87
2018-12-02T21:53:36.056Z,9.87
2018-12-02T21:56:41.491Z,10.00
2018-12-02T21:59:46.865Z,10.17
2018-12-02T22:02:53.896Z,9.77
2018-12-02T22:05:59.268Z,9.47
2018-12-02T22:09:06.893Z,9.17
2018-12-02T22:12:12.436Z,9.10
2018-12-02T22:15:17.800Z,8.87
2018-12-02T22:18:23.180Z,9.57
2018-12-02T22:21:28.617Z,9.23
2018-12-02T22:24:34.133Z,9.57
2018-12-02T22:27:39.600Z,9.77
2018-12-02T22:30:45.189Z,9.63
2018-12-02T22:33:50.511Z,10.63
2018-12-02T22:36:59.835Z,10.27
2018-12-02T22:40:13.572Z,11.57
2018-12-02T22:43:19.022Z,10.63
2018-12-02T22:46:24.888Z,12.23
2018-12-02T22:49:30.320Z,12.70
2018-12-02T22:52:35.867Z,12.30
2018-12-02T22:55:41.261Z,13.77
2018-12-02T22:58:46.660Z,14.93
2018-12-02T23:01:57.332Z,14.17
2018-12-02T23:05:02.783Z,14.47
2018-12-02T23:08:08.931Z,14.20
2018-12-02T23:11:14.401Z,14.57
2018-12-02T23:14:19.844Z,13.93
2018-12-02T23:17:25.273Z,14.20
2018-12-02T23:20:30.764Z,14.27
2018-12-02T23:23:36.282Z,12.37
2018-12-02T23:26:41.758Z,13.90
2018-12-02T23:29:47.616Z,12.43
2018-12-02T23:32:53.556Z,12.47
2018-12-02T23:35:59.029Z,11.97
2018-12-02T23:39:04.803Z,10.60
2018-12-02T23:42:10.337Z,11.40
2018-12-02T23:45:17.236Z,9.60
2018-12-02T23:48:22.624Z,8.47
2018-12-02T23:51:28.117Z,7.60
2018-12-02T23:54:33.517Z,6.83
2018-12-02T23:57:39.030Z,4.87
